ADDS METAR Data INFO
IDs: Format: Raw Decoded Include TAF

Data at: 0451 UTC 22 Apr 2018

METAR for:KLOU (Louisville/Bowman Fl, KY, US)
Text:KLOU 220353Z AUTO 04008KT 10SM CLR 14/M02 A3029 RMK AO2 SLP254 T01391017
Temperature: 13.9°C ( 57°F)
Dewpoint: -1.7°C ( 29°F) [RH = 34%]
Pressure (altimeter):30.29 inches Hg (1025.8 mb) [Sea level pressure: 1025.4 mb]
Winds:from the NE (40 degrees) at 9 MPH (8 knots; 4.1 m/s)
Visibility:10 or more sm (16+ km)
Ceiling:at least 12,000 feet AGL
Clouds:sky clear below 12,000 feet AGL
QC Flag:automated observation with no human augmentation